Edgewood, New York
Current Conditions -  °F | °C
As of 2:56 PM on Friday 28 Nov 2014 (Local Time) from KISP Reporting Station
Broken Clouds Broken Clouds  
Wind Chill: -4°   Ceiling: 4100
Heat Index:   Visibility: 10mi
Dew Point: -7°   Wind: 18mph
Humidity: 50%   Direction: 300°WNW
Pressure: 30.12"   Gusts: NA
Location:  40.7837°N, 73.252°W
Report Text: KISP 281956Z 30016KT 10SM BKN041 02/M07 A3012 RMK AO2 SLP201 T00221072
Loading
Personal Weather Stations






























Interactive Weather Map New forecast layout! Learn more

10-Day Weather Forecast

Advertisements
Track Severe Weather on mobile